Terminal Aerodrome Forecast
Issued by NWS

Home | Current Version | Previous Version | Text Only | Print | Product List | Glossary On
Versions: 1 2 3 4 5 6 7 8 9 10 11 12 13 14 15 16 17 18 19 20 21 22 23 24 25 26 27 28 29 30
000
FTUS46 KOTX 182328
TAFSFF
TAF
KSFF 182328Z 1900/1924 00000KT P6SM SCT025 BKN050 OVC070
     FM190800 VRB02KT P6SM -RA BKN020 OVC030
     FM191300 VRB03KT 4SM -RA BR BKN012 OVC020
     FM192000 21005KT P6SM OVC015=

USA.gov is the U.S. government's official web portal to all federal, state and local government web resources and services.